createdAt,value
2022-07-29T00:01:19.699Z,4.47
2022-07-29T00:03:48.980Z,4.07
2022-07-29T00:06:19.209Z,3.97
2022-07-29T00:08:46.278Z,3.75
2022-07-29T00:11:12.929Z,4.03
2022-07-29T00:13:46.419Z,3.70
2022-07-29T00:16:18.198Z,4.30
2022-07-29T00:18:47.092Z,4.03
2022-07-29T00:21:13.699Z,4.15
2022-07-29T00:23:40.271Z,4.47
2022-07-29T00:26:12.164Z,4.53
2022-07-29T00:28:38.757Z,3.80
2022-07-29T00:31:05.527Z,3.55
2022-07-29T00:33:32.296Z,3.97
2022-07-29T00:36:06.577Z,4.10
2022-07-29T00:38:35.600Z,3.80
2022-07-29T00:41:04.443Z,3.90
2022-07-29T00:43:31.070Z,3.83
2022-07-29T00:45:57.633Z,3.55
2022-07-29T00:48:24.209Z,4.32
2022-07-29T00:50:51.769Z,4.27
2022-07-29T00:53:18.453Z,4.35
2022-07-29T00:55:47.243Z,3.88
2022-07-29T00:58:16.814Z,4.22
2022-07-29T01:00:43.690Z,4.93
2022-07-29T01:03:14.955Z,4.77
2022-07-29T01:05:49.914Z,4.43
2022-07-29T01:08:20.814Z,4.65
2022-07-29T01:10:48.444Z,5.10
2022-07-29T01:13:16.956Z,4.72
2022-07-29T01:16:36.256Z,4.50
2022-07-29T01:19:24.415Z,4.47
2022-07-29T01:22:02.699Z,5.18
2022-07-29T01:25:03.242Z,5.18
2022-07-29T01:27:55.924Z,5.50
2022-07-29T01:30:26.319Z,5.27
2022-07-29T01:33:00.656Z,4.60
2022-07-29T01:35:32.909Z,4.50
2022-07-29T01:37:59.441Z,4.30
2022-07-29T01:40:31.874Z,3.95
2022-07-29T01:43:00.857Z,3.67
2022-07-29T01:45:47.883Z,4.22
2022-07-29T01:48:19.185Z,4.43
2022-07-29T01:50:58.485Z,4.40
2022-07-29T01:53:36.452Z,4.43
2022-07-29T01:56:07.543Z,4.13
2022-07-29T01:58:37.871Z,4.15
2022-07-29T02:01:05.943Z,4.10
2022-07-29T02:03:37.435Z,4.22
2022-07-29T02:06:08.265Z,4.53
2022-07-29T02:08:41.619Z,3.90
2022-07-29T02:11:09.822Z,4.20
2022-07-29T02:13:40.158Z,3.63
2022-07-29T02:16:09.472Z,4.53
2022-07-29T02:18:42.395Z,4.40
2022-07-29T02:21:15.088Z,4.20
2022-07-29T02:23:51.140Z,4.88
2022-07-29T02:26:20.356Z,4.68
2022-07-29T02:28:53.503Z,4.53
2022-07-29T02:31:24.414Z,4.45
2022-07-29T02:33:53.869Z,4.30
2022-07-29T02:36:24.041Z,4.75
2022-07-29T02:38:51.759Z,4.70
2022-07-29T02:41:27.713Z,4.28
2022-07-29T02:44:02.863Z,4.80
2022-07-29T02:46:33.446Z,4.40
2022-07-29T02:49:25.725Z,4.13
2022-07-29T02:51:56.639Z,4.60
2022-07-29T02:54:40.253Z,4.38
2022-07-29T02:57:32.016Z,4.40
2022-07-29T03:00:05.226Z,4.10
2022-07-29T03:02:36.493Z,4.28
2022-07-29T03:05:05.902Z,4.43
2022-07-29T03:07:34.798Z,4.38
2022-07-29T03:10:04.536Z,4.15
2022-07-29T03:12:32.139Z,4.50
2022-07-29T03:15:02.906Z,4.45
2022-07-29T03:17:32.553Z,4.30
2022-07-29T03:20:02.942Z,4.10
2022-07-29T03:22:30.144Z,4.70
2022-07-29T03:24:56.774Z,4.87
2022-07-29T03:27:25.620Z,4.68
2022-07-29T03:29:52.228Z,4.20
2022-07-29T03:32:24.003Z,4.15
2022-07-29T03:34:51.962Z,4.60
2022-07-29T03:37:20.859Z,4.53
2022-07-29T03:39:49.601Z,4.43
2022-07-29T03:42:20.562Z,4.50
2022-07-29T03:44:49.383Z,4.00
2022-07-29T03:47:18.988Z,4.40
2022-07-29T03:49:55.173Z,4.47
2022-07-29T03:52:24.792Z,5.07
2022-07-29T03:54:51.491Z,4.78
2022-07-29T03:57:21.470Z,4.68
2022-07-29T03:59:55.672Z,5.20
2022-07-29T04:02:28.780Z,4.80
2022-07-29T04:05:00.625Z,4.60
2022-07-29T04:07:27.302Z,4.90
2022-07-29T04:09:54.291Z,5.05
2022-07-29T04:12:22.001Z,4.45
2022-07-29T04:14:51.231Z,4.70
2022-07-29T04:17:17.947Z,4.70
2022-07-29T04:19:44.530Z,5.88
2022-07-29T04:22:11.073Z,5.10
2022-07-29T04:24:37.865Z,4.90
2022-07-29T04:27:04.532Z,5.70
2022-07-29T04:29:33.714Z,6.22
2022-07-29T04:32:03.267Z,6.60
2022-07-29T04:34:30.000Z,5.97
2022-07-29T04:36:56.860Z,5.82
2022-07-29T04:39:23.455Z,5.70
2022-07-29T04:41:54.915Z,6.28
2022-07-29T04:44:28.439Z,7.13
2022-07-29T04:46:55.483Z,5.88
2022-07-29T04:49:22.513Z,6.38
2022-07-29T04:51:49.136Z,5.43
2022-07-29T04:54:18.841Z,5.30
2022-07-29T04:56:47.402Z,5.68
2022-07-29T04:59:16.630Z,5.72
2022-07-29T05:01:45.351Z,5.55
2022-07-29T05:04:12.000Z,5.07
2022-07-29T05:06:38.565Z,5.32
2022-07-29T05:09:09.649Z,4.97
2022-07-29T05:11:36.211Z,5.30
2022-07-29T05:14:05.995Z,5.57
2022-07-29T05:16:37.600Z,4.93
2022-07-29T05:19:10.931Z,5.20
2022-07-29T05:21:43.378Z,5.05
2022-07-29T05:24:13.186Z,5.05
2022-07-29T05:26:43.646Z,5.70
2022-07-29T05:29:44.322Z,5.63
2022-07-29T05:31:57.162Z,6.60
2022-07-29T05:34:26.142Z,6.90
2022-07-29T05:36:55.111Z,5.57
2022-07-29T05:39:21.709Z,6.38
2022-07-29T05:41:53.142Z,6.17
2022-07-29T05:44:20.270Z,6.20
2022-07-29T05:46:52.386Z,7.00
2022-07-29T05:49:26.977Z,6.95
2022-07-29T05:51:57.253Z,6.50
2022-07-29T05:54:23.785Z,6.60
2022-07-29T05:56:52.893Z,6.80
2022-07-29T05:59:19.437Z,6.78
2022-07-29T06:01:48.147Z,6.47
2022-07-29T06:04:18.066Z,6.60
2022-07-29T06:06:47.064Z,6.37
2022-07-29T06:09:14.359Z,6.40
2022-07-29T06:11:41.106Z,6.03
2022-07-29T06:14:07.653Z,6.13
2022-07-29T06:16:34.287Z,6.38
2022-07-29T06:19:03.286Z,6.97
2022-07-29T06:21:32.431Z,6.88
2022-07-29T06:23:58.983Z,6.70
2022-07-29T06:26:31.427Z,6.85
2022-07-29T06:29:00.066Z,7.18
2022-07-29T06:31:27.168Z,7.03
2022-07-29T06:33:56.140Z,7.05
2022-07-29T06:36:22.969Z,7.18
2022-07-29T06:38:52.277Z,6.95
2022-07-29T06:41:23.752Z,7.50
2022-07-29T06:43:54.577Z,6.60
2022-07-29T06:46:24.972Z,6.85
2022-07-29T06:48:53.116Z,7.45
2022-07-29T06:51:22.274Z,6.88
2022-07-29T06:54:01.422Z,7.03
2022-07-29T06:56:39.338Z,6.77
2022-07-29T06:59:13.072Z,6.75
2022-07-29T07:01:42.104Z,7.90
2022-07-29T07:04:12.045Z,7.00
2022-07-29T07:06:38.982Z,6.55
2022-07-29T07:09:05.804Z,6.93
2022-07-29T07:11:32.424Z,6.78
2022-07-29T07:14:02.949Z,7.95
2022-07-29T07:16:31.990Z,7.40
2022-07-29T07:18:58.733Z,7.13
2022-07-29T07:21:25.300Z,7.37
2022-07-29T07:23:51.891Z,7.70
2022-07-29T07:26:18.533Z,7.80
2022-07-29T07:28:45.292Z,8.10
2022-07-29T07:31:12.867Z,7.25
2022-07-29T07:33:41.755Z,7.53
2022-07-29T07:36:10.671Z,7.65
2022-07-29T07:38:37.237Z,7.70
2022-07-29T07:41:06.653Z,8.43
2022-07-29T07:43:33.231Z,7.85
2022-07-29T07:46:00.254Z,7.33
2022-07-29T07:48:30.093Z,7.38
2022-07-29T07:50:58.946Z,7.53
2022-07-29T07:53:25.491Z,8.40
2022-07-29T07:56:12.884Z,7.93
2022-07-29T07:58:40.027Z,8.77
2022-07-29T08:01:06.855Z,8.25
2022-07-29T08:03:34.366Z,8.40
2022-07-29T08:06:00.935Z,8.23
2022-07-29T08:08:27.479Z,8.50
2022-07-29T08:10:54.288Z,8.13
2022-07-29T08:13:23.221Z,7.93
2022-07-29T08:15:58.650Z,7.50
2022-07-29T08:18:29.188Z,7.40
2022-07-29T08:20:56.214Z,6.80
2022-07-29T08:23:32.857Z,6.63
2022-07-29T08:26:14.543Z,7.50
2022-07-29T08:28:50.407Z,6.65
2022-07-29T08:31:17.810Z,7.55
2022-07-29T08:33:44.442Z,7.57
2022-07-29T08:36:11.095Z,6.67
2022-07-29T08:38:37.679Z,8.70
2022-07-29T08:41:04.695Z,7.22
2022-07-29T08:43:31.455Z,7.00
2022-07-29T08:45:58.139Z,7.78
2022-07-29T08:48:25.719Z,7.13
2022-07-29T08:50:57.318Z,7.18
2022-07-29T08:53:27.652Z,7.20
2022-07-29T08:55:54.734Z,7.00
2022-07-29T08:58:23.257Z,7.72
2022-07-29T09:00:55.454Z,7.80
2022-07-29T09:03:25.641Z,7.50
2022-07-29T09:05:55.899Z,7.15
2022-07-29T09:08:23.723Z,6.53
2022-07-29T09:10:50.777Z,7.35
2022-07-29T09:13:19.650Z,7.90
2022-07-29T09:15:46.519Z,7.85
2022-07-29T09:18:20.350Z,7.75
2022-07-29T09:21:16.330Z,7.75
2022-07-29T09:24:20.464Z,8.32
2022-07-29T09:26:49.810Z,7.83
2022-07-29T09:29:21.606Z,7.97
2022-07-29T09:31:51.669Z,8.63
2022-07-29T09:34:24.452Z,7.72
2022-07-29T09:36:54.739Z,7.63
2022-07-29T09:39:34.052Z,8.43
2022-07-29T09:42:03.448Z,7.85
2022-07-29T09:44:50.278Z,7.93
2022-07-29T09:47:19.024Z,7.70
2022-07-29T09:50:02.079Z,7.45
2022-07-29T09:52:33.035Z,6.77
2022-07-29T09:55:17.933Z,7.93
2022-07-29T09:57:45.308Z,6.57
2022-07-29T10:00:12.260Z,7.05
2022-07-29T10:02:44.962Z,7.45
2022-07-29T10:05:23.863Z,7.43
2022-07-29T10:07:55.227Z,6.90
2022-07-29T10:10:32.309Z,6.47
2022-07-29T10:13:09.828Z,5.40
2022-07-29T10:15:45.242Z,5.80
2022-07-29T10:18:18.330Z,5.30
2022-07-29T10:20:45.398Z,5.80
2022-07-29T10:23:14.439Z,6.18
2022-07-29T10:25:46.046Z,5.20
2022-07-29T10:28:16.422Z,5.75
2022-07-29T10:30:47.992Z,5.10
2022-07-29T10:33:52.460Z,5.68
2022-07-29T10:36:35.743Z,5.47
2022-07-29T10:39:44.588Z,5.43
2022-07-29T10:42:34.326Z,5.70
2022-07-29T10:45:07.508Z,5.73
2022-07-29T10:47:36.797Z,5.10
2022-07-29T10:50:13.979Z,5.80
2022-07-29T10:52:58.444Z,5.78
2022-07-29T10:55:43.117Z,5.18
2022-07-29T10:58:26.827Z,4.70
2022-07-29T11:00:55.033Z,5.43
2022-07-29T11:03:41.843Z,5.15
2022-07-29T11:06:26.835Z,4.45
2022-07-29T11:09:34.773Z,4.65
2022-07-29T11:12:04.873Z,4.23
2022-07-29T11:14:53.560Z,4.30
2022-07-29T11:17:22.489Z,4.60
2022-07-29T11:19:52.325Z,4.32
2022-07-29T11:25:50.389Z,4.23
2022-07-29T11:28:23.138Z,4.15
2022-07-29T11:30:56.148Z,4.43
2022-07-29T11:33:37.460Z,4.00
2022-07-29T11:36:18.613Z,4.00
2022-07-29T11:39:40.878Z,4.60
2022-07-29T11:45:41.520Z,4.10
2022-07-29T11:48:19.640Z,4.13
2022-07-29T11:50:48.925Z,4.10
2022-07-29T11:53:21.385Z,4.40
2022-07-29T11:55:56.399Z,4.00
2022-07-29T11:58:26.529Z,4.03
2022-07-29T12:00:55.696Z,3.60
2022-07-29T12:03:36.103Z,3.08
2022-07-29T12:06:15.085Z,2.97
2022-07-29T12:07:03.639Z,3.42
2022-07-29T12:08:48.028Z,2.80
2022-07-29T12:11:23.444Z,2.78
2022-07-29T12:13:56.319Z,2.30
2022-07-29T12:16:25.595Z,2.10
2022-07-29T12:19:02.339Z,2.10
2022-07-29T12:21:30.971Z,2.08
2022-07-29T12:24:03.435Z,2.47
2022-07-29T12:26:35.715Z,2.55
2022-07-29T12:29:11.438Z,2.22
2022-07-29T12:31:45.448Z,2.47
2022-07-29T12:34:16.421Z,2.28
2022-07-29T12:36:44.166Z,2.60
2022-07-29T12:39:12.407Z,2.30
2022-07-29T12:41:40.029Z,2.50
2022-07-29T12:44:09.091Z,2.37
2022-07-29T12:46:35.882Z,2.10
2022-07-29T12:49:04.137Z,2.72
2022-07-29T12:51:39.702Z,2.50
2022-07-29T12:54:16.297Z,2.45
2022-07-29T12:56:45.369Z,2.37
2022-07-29T12:59:22.902Z,2.63
2022-07-29T13:01:52.410Z,2.33
2022-07-29T13:04:31.086Z,2.50
2022-07-29T13:07:06.458Z,2.60
2022-07-29T13:09:44.214Z,2.10
2022-07-29T13:12:15.419Z,2.40
2022-07-29T13:14:44.554Z,2.60
2022-07-29T13:17:13.891Z,2.30
2022-07-29T13:19:49.181Z,2.30
2022-07-29T13:22:25.081Z,2.57
2022-07-29T13:24:52.834Z,2.20
2022-07-29T13:27:22.353Z,2.50
2022-07-29T13:29:50.146Z,2.22
2022-07-29T13:32:28.284Z,2.00
2022-07-29T13:35:05.453Z,1.93
2022-07-29T13:37:35.201Z,2.03
2022-07-29T13:40:04.219Z,2.22
2022-07-29T13:42:32.433Z,2.50
2022-07-29T13:44:59.486Z,1.90
2022-07-29T13:47:32.206Z,2.20
2022-07-29T13:50:02.932Z,2.20
2022-07-29T13:52:29.737Z,2.33
2022-07-29T13:54:56.411Z,2.17
2022-07-29T13:57:23.050Z,2.30
2022-07-29T13:59:53.858Z,2.30
2022-07-29T14:02:26.419Z,2.35
2022-07-29T14:04:58.377Z,2.20
2022-07-29T14:07:25.102Z,2.08
2022-07-29T14:09:54.528Z,2.17
2022-07-29T14:12:24.274Z,1.70
2022-07-29T14:14:51.171Z,1.80
2022-07-29T14:17:21.187Z,2.10
2022-07-29T14:19:52.329Z,2.20
2022-07-29T14:22:23.125Z,1.90
2022-07-29T14:24:57.041Z,2.10
2022-07-29T14:27:38.073Z,2.00
2022-07-29T14:30:08.355Z,2.10
2022-07-29T14:32:34.898Z,1.92
2022-07-29T14:35:01.514Z,2.55
2022-07-29T14:37:39.957Z,1.80
2022-07-29T14:40:08.990Z,2.38
2022-07-29T14:42:35.627Z,2.60
2022-07-29T14:45:04.975Z,2.53
2022-07-29T14:47:33.234Z,2.35
2022-07-29T14:50:00.195Z,2.23
2022-07-29T14:52:31.598Z,2.42
2022-07-29T14:54:58.356Z,2.45
2022-07-29T14:57:25.115Z,2.38
2022-07-29T14:59:52.226Z,2.63
2022-07-29T15:02:21.841Z,3.20
2022-07-29T15:04:50.975Z,2.97
2022-07-29T15:07:20.042Z,3.65
2022-07-29T15:09:49.415Z,3.58
2022-07-29T15:12:16.617Z,3.70
2022-07-29T15:14:43.665Z,3.30
2022-07-29T15:17:10.413Z,3.53
2022-07-29T15:19:37.028Z,3.65
2022-07-29T15:22:05.760Z,3.40
2022-07-29T15:24:35.133Z,3.35
2022-07-29T15:27:02.172Z,3.20
2022-07-29T15:29:31.404Z,3.83
2022-07-29T15:31:58.263Z,3.85
2022-07-29T15:34:25.121Z,4.05
2022-07-29T15:36:54.502Z,4.25
2022-07-29T15:39:22.146Z,3.80
2022-07-29T15:41:49.124Z,4.15
2022-07-29T15:44:15.895Z,4.65
2022-07-29T15:47:01.765Z,4.35
2022-07-29T15:49:47.644Z,3.92
2022-07-29T15:52:25.333Z,4.00
2022-07-29T15:54:54.381Z,3.78
2022-07-29T15:57:20.947Z,3.45
2022-07-29T15:59:49.695Z,4.22
2022-07-29T16:02:16.288Z,3.90
2022-07-29T16:04:45.709Z,4.13
2022-07-29T16:07:17.272Z,4.20
2022-07-29T16:09:52.431Z,3.58
2022-07-29T16:12:21.999Z,3.45
2022-07-29T16:14:52.120Z,3.70
2022-07-29T16:17:24.007Z,3.27
2022-07-29T16:19:50.632Z,3.45
2022-07-29T16:22:17.292Z,3.33
2022-07-29T16:24:44.012Z,3.58
2022-07-29T16:27:13.639Z,3.97
2022-07-29T16:29:40.240Z,3.83
2022-07-29T16:32:07.107Z,3.42
2022-07-29T16:34:36.400Z,3.70
2022-07-29T16:37:03.669Z,3.50
2022-07-29T16:39:32.821Z,4.10
2022-07-29T16:42:01.008Z,4.13
2022-07-29T16:44:30.001Z,3.80
2022-07-29T16:46:58.795Z,3.80
2022-07-29T16:49:29.897Z,3.65
2022-07-29T16:51:58.953Z,3.88
2022-07-29T16:54:28.388Z,3.83
2022-07-29T16:56:54.939Z,4.38
2022-07-29T16:59:22.616Z,3.80
2022-07-29T17:01:51.520Z,4.00
2022-07-29T17:04:18.208Z,3.95
2022-07-29T17:06:44.834Z,4.00
2022-07-29T17:09:15.078Z,3.97
2022-07-29T17:11:52.967Z,4.00
2022-07-29T17:14:25.731Z,4.45
2022-07-29T17:17:00.414Z,3.50
2022-07-29T17:19:29.965Z,4.20
2022-07-29T17:22:08.974Z,3.92
2022-07-29T17:24:38.952Z,4.05
2022-07-29T17:27:09.393Z,3.65
2022-07-29T17:29:38.928Z,3.95
2022-07-29T17:32:11.585Z,3.60
2022-07-29T17:34:39.726Z,3.55
2022-07-29T17:37:08.185Z,3.58
2022-07-29T17:39:35.748Z,3.15
2022-07-29T17:42:06.586Z,3.13
2022-07-29T17:44:36.204Z,3.00
2022-07-29T17:47:06.499Z,3.15
2022-07-29T17:49:37.455Z,3.05
2022-07-29T17:52:06.742Z,3.50
2022-07-29T17:54:33.409Z,3.15
2022-07-29T17:57:00.753Z,3.50
2022-07-29T17:59:27.565Z,2.90
2022-07-29T18:01:54.403Z,3.30
2022-07-29T18:04:23.412Z,2.80
2022-07-29T18:06:55.034Z,2.92
2022-07-29T18:09:24.358Z,3.10
2022-07-29T18:11:54.219Z,2.95
2022-07-29T18:14:20.818Z,3.25
2022-07-29T18:16:47.892Z,3.10
2022-07-29T18:19:14.965Z,3.60
2022-07-29T18:21:54.697Z,3.10
2022-07-29T18:24:27.598Z,2.90
2022-07-29T18:26:54.284Z,3.15
2022-07-29T18:29:21.050Z,2.90
2022-07-29T18:31:47.703Z,3.33
2022-07-29T18:34:14.279Z,3.17
2022-07-29T18:36:44.110Z,3.40
2022-07-29T18:39:11.365Z,3.05
2022-07-29T18:41:50.311Z,3.20
2022-07-29T18:44:18.953Z,3.40
2022-07-29T18:46:55.812Z,2.53
2022-07-29T18:49:23.371Z,3.22
2022-07-29T18:51:50.425Z,4.00
2022-07-29T18:54:19.919Z,3.67
2022-07-29T18:56:49.510Z,3.35
2022-07-29T18:59:19.543Z,3.20
2022-07-29T19:01:46.851Z,3.58
2022-07-29T19:04:17.161Z,3.30
2022-07-29T19:06:46.247Z,3.25
2022-07-29T19:09:13.385Z,3.08
2022-07-29T19:11:40.147Z,2.83
2022-07-29T19:14:07.066Z,3.15
2022-07-29T19:16:33.691Z,3.33
2022-07-29T19:19:01.120Z,3.00
2022-07-29T19:21:30.069Z,3.47
2022-07-29T19:24:00.118Z,3.80
2022-07-29T19:26:36.890Z,3.42
2022-07-29T19:29:06.277Z,3.15
2022-07-29T19:31:33.021Z,3.03
2022-07-29T19:33:59.675Z,3.42
2022-07-29T19:36:27.303Z,3.30
2022-07-29T19:38:53.870Z,2.85
2022-07-29T19:41:20.530Z,3.53
2022-07-29T19:43:51.959Z,3.20
2022-07-29T19:46:22.134Z,3.10
2022-07-29T19:48:49.234Z,3.10
2022-07-29T19:51:17.358Z,2.58
2022-07-29T19:53:46.072Z,2.88
2022-07-29T19:56:12.709Z,3.20
2022-07-29T19:58:41.544Z,2.78
2022-07-29T20:01:13.284Z,2.67
2022-07-29T20:03:42.244Z,2.90
2022-07-29T20:06:08.869Z,2.70
2022-07-29T20:08:35.664Z,2.90
2022-07-29T20:11:03.396Z,2.80
2022-07-29T20:13:31.723Z,2.63
2022-07-29T20:15:58.439Z,3.42
2022-07-29T20:18:25.151Z,2.67
2022-07-29T20:20:51.774Z,2.90
2022-07-29T20:23:22.372Z,2.90
2022-07-29T20:25:49.470Z,2.60
2022-07-29T20:28:18.330Z,3.33
2022-07-29T20:30:47.642Z,2.47
2022-07-29T20:33:14.717Z,2.33
2022-07-29T20:35:41.750Z,2.20
2022-07-29T20:38:13.005Z,2.10
2022-07-29T20:40:45.375Z,2.30
2022-07-29T20:43:14.330Z,2.60
2022-07-29T20:45:40.969Z,2.65
2022-07-29T20:48:08.292Z,2.00
2022-07-29T20:50:35.312Z,1.90
2022-07-29T20:53:01.893Z,2.17
2022-07-29T20:55:33.440Z,2.03
2022-07-29T20:58:02.849Z,1.80
2022-07-29T21:00:31.666Z,2.75
2022-07-29T21:02:58.905Z,2.13
2022-07-29T21:05:26.230Z,2.05
2022-07-29T21:07:56.582Z,2.60
2022-07-29T21:10:28.129Z,2.28
2022-07-29T21:12:57.233Z,2.28
2022-07-29T21:15:27.783Z,2.27
2022-07-29T21:18:00.815Z,2.22
2022-07-29T21:20:27.642Z,2.10
2022-07-29T21:22:56.761Z,2.00
2022-07-29T21:25:26.720Z,2.40
2022-07-29T21:28:14.044Z,2.33
2022-07-29T21:30:45.540Z,2.30
2022-07-29T21:33:17.233Z,2.65
2022-07-29T21:36:14.962Z,2.40
2022-07-29T21:38:35.023Z,2.25
2022-07-29T21:41:03.019Z,2.70
2022-07-29T21:43:29.909Z,2.60
2022-07-29T21:46:00.017Z,2.83
2022-07-29T21:48:29.245Z,2.42
2022-07-29T21:50:58.969Z,2.88
2022-07-29T21:53:26.763Z,2.70
2022-07-29T21:55:57.255Z,2.80
2022-07-29T21:58:28.711Z,3.08
2022-07-29T22:01:00.392Z,2.80
2022-07-29T22:03:30.068Z,3.22
2022-07-29T22:05:59.636Z,3.30
2022-07-29T22:08:26.295Z,2.90
2022-07-29T22:10:57.877Z,3.05
2022-07-29T22:13:24.440Z,3.40
2022-07-29T22:15:51.052Z,3.10
2022-07-29T22:18:21.332Z,2.90
2022-07-29T22:20:49.491Z,3.20
2022-07-29T22:23:20.971Z,2.92
2022-07-29T22:25:47.640Z,3.28
2022-07-29T22:28:14.214Z,3.20
2022-07-29T22:30:45.990Z,3.27
2022-07-29T22:33:17.598Z,3.53
2022-07-29T22:35:44.727Z,3.63
2022-07-29T22:38:14.341Z,3.55
2022-07-29T22:40:43.529Z,3.42
2022-07-29T22:43:12.900Z,3.00
2022-07-29T22:45:39.522Z,3.33
2022-07-29T22:48:08.958Z,3.55
2022-07-29T22:50:35.511Z,3.13
2022-07-29T22:53:04.382Z,3.10
2022-07-29T22:55:30.964Z,3.10
2022-07-29T22:57:59.959Z,3.10
2022-07-29T23:00:28.882Z,3.42
2022-07-29T23:02:57.711Z,3.00
2022-07-29T23:05:29.213Z,3.40
2022-07-29T23:07:56.016Z,3.13
2022-07-29T23:10:24.847Z,3.08
2022-07-29T23:12:53.892Z,3.20
2022-07-29T23:15:25.492Z,3.00
2022-07-29T23:17:54.445Z,3.25
2022-07-29T23:20:23.515Z,3.10
2022-07-29T23:22:55.857Z,3.45
2022-07-29T23:25:22.850Z,3.38
2022-07-29T23:27:49.850Z,3.25
2022-07-29T23:30:19.295Z,3.20
2022-07-29T23:32:48.131Z,2.90
2022-07-29T23:35:15.199Z,3.55
2022-07-29T23:37:44.851Z,4.10
2022-07-29T23:40:14.488Z,5.28
2022-07-29T23:42:42.302Z,8.20
2022-07-29T23:45:10.024Z,10.53
2022-07-29T23:47:36.728Z,38.60
2022-07-29T23:50:07.014Z,41.13
2022-07-29T23:52:33.915Z,40.40
2022-07-29T23:55:37.464Z,26.55
2022-07-29T23:57:51.179Z,17.23
